Terminal Aerodrome Forecast
Issued by NWS Cleveland, OH

Home | Current Version | Previous Version | Text Only | Print | Product List | Glossary On
Versions: 1 2 3 4 5 6 7 8 9 10 11 12 13 14 15 16 17 18 19 20 21 22 23 24 25 26 27 28 29 30 31
000
FTUS41 KCLE 170500
TAFERI
TAF
KERI 170525Z 1706/1806 25012KT 6SM -RA OVC008
      TEMPO 1706/1708 4SM -RA
     FM170830 25012G22KT P6SM VCSH SCT008 OVC015
     FM171300 25015G25KT 5SM -SHSN OVC015
     FM171800 25015G25KT 2SM -SHSN SCT006 OVC010
     FM180000 25012G22KT P6SM -SHSN OVC015=

USA.gov is the U.S. government's official web portal to all federal, state and local government web resources and services.